EmailTwitter


Observations de surface / Québec / CYSC

Régions: Québec | Canada | États-Unis | Europe | France | UK | Ailleurs
Station
Affichage
Infos & localisation pour CYSC | Aide pour décoder les METARs

Observations prises le 2018-07-20 à 21H00 UTC à SHERBROOKE, QB (CYSC)

Etat du ciel: quelques nuages.

Température: 29.0 Celsius

Point de rosée: 15.0 Celsius

Humidité relative: 43%

Indice Humidex: 33.

Vents: Est à 9 km/h ou 5 noeuds.

Pression au niveau moyen de la mer: 101.94 kilopascals.

Calage altimétrique: 101.93 kilopascals ou 30.10 pouces de mercure.

Visibilité horizontale: 9.00 milles terrestres ou 14.40 kilomètres.

Observation METAR:

CYSC 202100Z AUTO 10005KT 080V200 9SM FEW250 29/15 A3010 RMK SLP194 DENSITY ALT

2300FT=